Time,TemperatureF,DewpointF,PressureIn,WindDirection,WindDirectionDegrees,WindSpeedMPH,WindSpeedGustMPH,Humidity,HourlyPrecipIn,Conditions,Clouds,dailyrainin,SoftwareType,DateUTC
2013-01-06 00:01:00,6.3,-99.9,30.03,ESE,117,4.0,6.7,-999,0.00,,,-99.99,FreeWX 2.04,2013-01-06 07:01:00,
2013-01-06 00:11:00,6.8,-99.9,30.03,ESE,116,3.0,5.8,-999,0.00,,,-99.99,FreeWX 2.04,2013-01-06 07:11:00,
2013-01-06 00:21:00,7.0,-99.9,30.00,ESE,116,2.0,5.8,-999,0.00,,,-99.99,FreeWX 2.04,2013-01-06 07:21:00,
2013-01-06 00:31:00,6.6,-99.9,30.00,North,-999,0.0,4.5,-999,0.00,,,-99.99,FreeWX 2.04,2013-01-06 07:31:00,
2013-01-06 00:41:00,5.9,-99.9,30.00,ESE,117,1.0,4.5,-999,0.00,,,-99.99,FreeWX 2.04,2013-01-06 07:41:00,
2013-01-06 00:51:00,6.4,-99.9,30.00,ESE,119,3.0,6.3,-999,0.00,,,-99.99,FreeWX 2.04,2013-01-06 07:51:00,
2013-01-06 01:01:00,5.9,-99.9,30.00,ESE,123,2.0,5.8,-999,0.00,,,-99.99,FreeWX 2.04,2013-01-06 08:01:00,
2013-01-06 01:11:00,6.6,-99.9,30.00,SE,124,5.0,6.9,-999,0.00,,,-99.99,FreeWX 2.04,2013-01-06 08:11:00,
2013-01-06 01:21:00,7.5,-99.9,30.00,ESE,119,4.0,6.3,-999,0.00,,,-99.99,FreeWX 2.04,2013-01-06 08:21:00,
2013-01-06 01:31:00,8.4,-99.9,30.00,ESE,114,5.0,6.9,-999,0.00,,,-99.99,FreeWX 2.04,2013-01-06 08:31:00,
2013-01-06 01:41:00,9.1,-99.9,30.00,ESE,113,5.0,7.8,-999,0.00,,,-99.99,FreeWX 2.04,2013-01-06 08:41:00,
2013-01-06 01:51:00,9.5,-99.9,30.00,ESE,105,5.0,8.3,-999,0.00,,,-99.99,FreeWX 2.04,2013-01-06 08:51:00,
2013-01-06 02:01:00,9.7,-99.9,30.00,ESE,110,5.0,6.9,-999,0.00,,,-99.99,FreeWX 2.04,2013-01-06 09:01:00,
2013-01-06 02:11:00,9.3,-99.9,30.00,ESE,103,5.0,7.4,-999,0.00,,,-99.99,FreeWX 2.04,2013-01-06 09:11:00,
2013-01-06 02:21:00,10.0,-99.9,30.00,ESE,107,5.0,8.7,-999,0.00,,,-99.99,FreeWX 2.04,2013-01-06 09:21:00,
2013-01-06 02:31:00,10.2,-99.9,30.00,ESE,113,5.0,9.6,-999,0.00,,,-99.99,FreeWX 2.04,2013-01-06 09:31:00,
2013-01-06 02:41:00,10.8,-99.9,30.00,ESE,112,6.0,9.2,-999,0.00,,,-99.99,FreeWX 2.04,2013-01-06 09:41:00,
2013-01-06 02:51:00,11.3,-99.9,30.00,ESE,109,6.0,9.2,-999,0.00,,,-99.99,FreeWX 2.04,2013-01-06 09:51:00,
2013-01-06 03:01:00,11.3,-99.9,30.00,ESE,107,6.0,9.2,-999,0.00,,,-99.99,FreeWX 2.04,2013-01-06 10:01:00,
2013-01-06 03:11:00,12.0,-99.9,29.97,SE,134,6.0,9.6,-999,0.00,,,-99.99,FreeWX 2.04,2013-01-06 10:11:00,
2013-01-06 03:21:00,11.1,-99.9,29.97,ESE,123,5.0,7.8,-999,0.00,,,-99.99,FreeWX 2.04,2013-01-06 10:21:00,
2013-01-06 03:31:00,10.2,-99.9,29.97,ESE,109,5.0,8.7,-999,0.00,,,-99.99,FreeWX 2.04,2013-01-06 10:31:00,
2013-01-06 03:41:00,11.5,-99.9,29.97,ESE,115,5.0,8.7,-999,0.00,,,-99.99,FreeWX 2.04,2013-01-06 10:41:00,
2013-01-06 03:51:00,11.5,-99.9,29.97,ESE,111,6.0,8.7,-999,0.00,,,-99.99,FreeWX 2.04,2013-01-06 10:51:00,
2013-01-06 04:01:00,10.4,-99.9,29.97,ESE,119,7.0,11.0,-999,0.00,,,-99.99,FreeWX 2.04,2013-01-06 11:01:00,
2013-01-06 04:11:00,10.9,-99.9,29.97,ESE,116,5.0,9.6,-999,0.00,,,-99.99,FreeWX 2.04,2013-01-06 11:11:00,
2013-01-06 04:21:00,12.0,-99.9,29.97,ESE,120,6.0,9.2,-999,0.00,,,-99.99,FreeWX 2.04,2013-01-06 11:21:00,
2013-01-06 04:31:00,14.4,-2.2,29.97,SE,130,6.0,10.1,47,0.00,,,-99.99,FreeWX 2.04,2013-01-06 11:31:00,
2013-01-06 04:41:00,16.3,-1.7,29.97,ESE,114,5.0,8.3,44,0.00,,,-99.99,FreeWX 2.04,2013-01-06 11:41:00,
2013-01-06 04:51:00,17.4,-1.1,29.94,SE,129,5.0,8.7,43,0.00,,,-99.99,FreeWX 2.04,2013-01-06 11:51:00,
2013-01-06 05:01:00,18.5,-2.7,29.94,SE,139,7.0,11.0,38,0.00,,,-99.99,FreeWX 2.04,2013-01-06 12:01:00,
2013-01-06 05:11:00,21.9,-2.0,29.94,ESE,120,6.0,9.6,34,0.00,,,-99.99,FreeWX 2.04,2013-01-06 12:11:00,
2013-01-06 05:21:00,22.6,-2.0,29.94,SE,125,7.0,11.6,33,0.00,,,-99.99,FreeWX 2.04,2013-01-06 12:21:00,
2013-01-06 05:31:00,21.4,-3.8,29.94,SE,125,5.0,11.0,32,0.00,,,-99.99,FreeWX 2.04,2013-01-06 12:31:00,
2013-01-06 05:41:00,20.7,-2.6,29.94,SE,134,3.0,8.3,35,0.00,,,-99.99,FreeWX 2.04,2013-01-06 12:41:00,
2013-01-06 05:51:00,21.7,-2.2,29.94,SSE,154,4.0,10.1,34,0.00,,,-99.99,FreeWX 2.04,2013-01-06 12:51:00,
2013-01-06 06:01:00,21.7,-2.2,29.94,ESE,108,5.0,9.6,34,0.00,,,-99.99,FreeWX 2.04,2013-01-06 13:01:00,
2013-01-06 06:11:00,21.7,-2.2,29.94,ESE,118,5.0,9.2,34,0.00,,,-99.99,FreeWX 2.04,2013-01-06 13:11:00,
2013-01-06 06:21:00,22.1,-2.6,29.94,ESE,123,6.0,10.1,33,0.00,,,-99.99,FreeWX 2.04,2013-01-06 13:21:00,
2013-01-06 06:31:00,22.1,-2.0,29.94,SSE,153,6.0,10.1,34,0.00,,,-99.99,FreeWX 2.04,2013-01-06 13:31:00,
2013-01-06 06:41:00,23.9,-0.9,29.94,ESE,115,6.0,11.0,33,0.00,,,-99.99,FreeWX 2.04,2013-01-06 13:41:00,
2013-01-06 06:51:00,22.6,-2.7,29.94,SE,144,3.0,7.8,32,0.00,,,-99.99,FreeWX 2.04,2013-01-06 13:51:00,
2013-01-06 07:01:00,19.8,-4.7,29.94,NNE,33,1.0,5.4,33,0.00,,,-99.99,FreeWX 2.04,2013-01-06 14:01:00,
2013-01-06 07:11:00,22.1,0.5,29.94,SE,145,3.0,7.4,38,0.00,,,-99.99,FreeWX 2.04,2013-01-06 14:11:00,
2013-01-06 07:21:00,22.3,-1.1,29.94,SSE,168,3.0,7.4,35,0.00,,,-99.99,FreeWX 2.04,2013-01-06 14:21:00,
2013-01-06 07:31:00,19.0,-4.0,29.94,SSE,167,1.0,5.4,35,0.00,,,-99.99,FreeWX 2.04,2013-01-06 14:31:00,
2013-01-06 07:41:00,18.0,-5.6,29.94,SSE,152,4.0,8.7,34,0.00,,,-99.99,FreeWX 2.04,2013-01-06 14:41:00,
2013-01-06 07:51:00,13.1,-99.9,29.94,NW,305,2.0,7.4,-999,0.00,,,-99.99,FreeWX 2.04,2013-01-06 14:51:00,
2013-01-06 08:01:00,11.8,-99.9,29.94,North,-999,0.0,3.1,-999,0.00,,,-99.99,FreeWX 2.04,2013-01-06 15:01:00,
2013-01-06 08:11:00,11.5,-99.9,29.94,North,-999,0.0,4.0,-999,0.00,,,-99.99,FreeWX 2.04,2013-01-06 15:11:00,
2013-01-06 08:21:00,9.9,-99.9,29.94,North,353,1.0,5.8,-999,0.00,,,-99.99,FreeWX 2.04,2013-01-06 15:21:00,
2013-01-06 08:31:00,10.2,-99.9,29.94,WNW,300,2.0,4.9,-999,0.00,,,-99.99,FreeWX 2.04,2013-01-06 15:31:00,
2013-01-06 08:41:00,11.5,-99.9,29.94,North,-999,0.0,0.0,-999,0.00,,,-99.99,FreeWX 2.04,2013-01-06 15:41:00,
2013-01-06 08:51:00,12.9,-99.9,29.94,North,-999,0.0,3.6,-999,0.00,,,-99.99,FreeWX 2.04,2013-01-06 15:51:00,
2013-01-06 09:01:00,14.0,-3.5,29.94,West,260,2.0,6.9,45,0.00,,,-99.99,FreeWX 2.04,2013-01-06 16:01:00,
2013-01-06 09:12:00,14.9,-2.6,29.94,North,358,1.0,5.8,45,0.00,,,-99.99,FreeWX 2.04,2013-01-06 16:12:00,
2013-01-06 09:22:00,15.6,-1.8,29.94,North,-999,0.0,4.5,45,0.00,,,-99.99,FreeWX 2.04,2013-01-06 16:22:00,
2013-01-06 09:32:00,16.7,-1.3,29.94,North,-999,0.0,0.0,44,0.00,,,-99.99,FreeWX 2.04,2013-01-06 16:32:00,
2013-01-06 09:42:00,18.1,-0.6,29.94,North,-999,0.0,3.6,43,0.00,,,-99.99,FreeWX 2.04,2013-01-06 16:42:00,
2013-01-06 09:52:00,18.9,-0.9,29.94,SW,223,2.0,4.0,41,0.00,,,-99.99,FreeWX 2.04,2013-01-06 16:52:00,
2013-01-06 10:02:00,19.9,-0.4,29.94,North,-999,0.0,4.0,40,0.00,,,-99.99,FreeWX 2.04,2013-01-06 17:02:00,
2013-01-06 10:12:00,20.5,-1.7,29.94,North,-999,0.0,4.0,37,0.00,,,-99.99,FreeWX 2.04,2013-01-06 17:12:00,
2013-01-06 10:22:00,21.4,-2.6,29.94,North,-999,0.0,3.6,34,0.00,,,-99.99,FreeWX 2.04,2013-01-06 17:22:00,
2013-01-06 10:32:00,22.1,-2.6,29.94,North,-999,0.0,4.5,33,0.00,,,-99.99,FreeWX 2.04,2013-01-06 17:32:00,
2013-01-06 10:42:00,24.3,-1.3,29.94,North,-999,0.0,3.6,32,0.00,,,-99.99,FreeWX 2.04,2013-01-06 17:42:00,
2013-01-06 10:52:00,23.4,-3.5,29.94,North,-999,0.0,0.0,30,0.00,,,-99.99,FreeWX 2.04,2013-01-06 17:52:00,
2013-01-06 11:02:00,23.7,-3.1,29.94,North,-999,0.0,0.0,30,0.00,,,-99.99,FreeWX 2.04,2013-01-06 18:02:00,
2013-01-06 11:12:00,25.0,-2.7,29.94,North,-999,0.0,0.0,29,0.00,,,-99.99,FreeWX 2.04,2013-01-06 18:12:00,
2013-01-06 11:22:00,25.0,-2.7,29.91,North,-999,0.0,0.0,29,0.00,,,-99.99,FreeWX 2.04,2013-01-06 18:22:00,
2013-01-06 11:32:00,26.6,-3.6,29.91,North,-999,0.0,0.0,26,0.00,,,-99.99,FreeWX 2.04,2013-01-06 18:32:00,
2013-01-06 11:42:00,27.9,-2.6,29.91,North,-999,0.0,4.0,26,0.00,,,-99.99,FreeWX 2.04,2013-01-06 18:42:00,
2013-01-06 11:52:00,27.3,-2.9,29.91,North,-999,0.0,3.1,26,0.00,,,-99.99,FreeWX 2.04,2013-01-06 18:52:00,
2013-01-06 12:02:00,27.3,-0.8,29.91,North,-999,0.0,4.0,29,0.00,,,-99.99,FreeWX 2.04,2013-01-06 19:02:00,
2013-01-06 12:12:00,27.1,-0.9,29.91,WSW,258,2.0,6.7,29,0.00,,,-99.99,FreeWX 2.04,2013-01-06 19:12:00,
2013-01-06 12:22:00,30.4,3.4,29.88,SW,224,1.0,4.9,31,0.00,,,-99.99,FreeWX 2.04,2013-01-06 19:22:00,
2013-01-06 12:32:00,35.4,2.3,29.88,ESE,118,2.0,5.8,24,0.00,,,-99.99,FreeWX 2.04,2013-01-06 19:32:00,
2013-01-06 13:02:00,26.4,-1.5,29.85,WNW,283,2.0,6.7,29,0.00,,,-99.99,FreeWX 2.04,2013-01-06 20:02:00,
2013-01-06 13:12:00,26.2,-0.2,29.85,North,354,3.0,6.3,31,0.00,,,-99.99,FreeWX 2.04,2013-01-06 20:12:00,
2013-01-06 13:22:00,27.9,1.2,29.85,NE,38,2.0,6.3,31,0.00,,,-99.99,FreeWX 2.04,2013-01-06 20:22:00,
2013-01-06 13:32:00,29.8,3.0,29.85,East,83,2.0,5.8,31,0.00,,,-99.99,FreeWX 2.04,2013-01-06 20:32:00,
2013-01-06 13:42:00,31.1,3.4,29.85,ESE,115,3.0,5.4,30,0.00,,,-99.99,FreeWX 2.04,2013-01-06 20:42:00,
2013-01-06 13:52:00,32.2,2.8,29.85,SE,126,1.0,5.8,28,0.00,,,-99.99,FreeWX 2.04,2013-01-06 20:52:00,
2013-01-06 14:02:00,32.9,4.8,29.85,North,-999,0.0,3.6,30,0.00,,,-99.99,FreeWX 2.04,2013-01-06 21:02:00,
2013-01-06 14:12:00,34.2,3.7,29.85,North,-999,0.0,4.0,27,0.00,,,-99.99,FreeWX 2.04,2013-01-06 21:12:00,
2013-01-06 14:23:00,35.6,5.0,29.85,North,-999,0.0,0.0,27,0.00,,,-99.99,FreeWX 2.04,2013-01-06 21:23:00,
2013-01-06 14:33:00,35.8,2.5,29.85,North,-999,0.0,5.4,24,0.00,,,-99.99,FreeWX 2.04,2013-01-06 21:33:00,
2013-01-06 14:43:00,30.6,3.6,29.85,NNW,338,4.0,6.9,31,0.00,,,-99.99,FreeWX 2.04,2013-01-06 21:43:00,
2013-01-06 14:53:00,29.3,5.0,29.85,NE,46,3.0,8.7,35,0.00,,,-99.99,FreeWX 2.04,2013-01-06 21:53:00,
2013-01-06 15:03:00,31.5,6.4,29.85,North,-999,0.0,4.9,34,0.00,,,-99.99,FreeWX 2.04,2013-01-06 22:03:00,
2013-01-06 15:13:00,26.8,3.4,29.85,WSW,253,5.0,8.7,36,0.00,,,-99.99,FreeWX 2.04,2013-01-06 22:13:00,
2013-01-06 15:23:00,26.2,4.6,29.85,WSW,258,3.0,8.7,39,0.00,,,-99.99,FreeWX 2.04,2013-01-06 22:23:00,
2013-01-06 15:33:00,26.4,4.8,29.85,WSW,250,2.0,5.8,39,0.00,,,-99.99,FreeWX 2.04,2013-01-06 22:33:00,
2013-01-06 15:43:00,26.4,4.3,29.88,WSW,254,1.0,5.8,38,0.00,,,-99.99,FreeWX 2.04,2013-01-06 22:43:00,
2013-01-06 15:53:00,26.4,3.7,29.88,North,-999,0.0,3.6,37,0.00,,,-99.99,FreeWX 2.04,2013-01-06 22:53:00,
2013-01-06 16:03:00,26.2,3.0,29.88,North,-999,0.0,4.0,36,0.00,,,-99.99,FreeWX 2.04,2013-01-06 23:03:00,
2013-01-06 16:13:00,26.1,2.1,29.88,North,-999,0.0,4.5,35,0.00,,,-99.99,FreeWX 2.04,2013-01-06 23:13:00,
2013-01-06 16:23:00,25.3,1.6,29.88,West,269,2.0,5.8,35,0.00,,,-99.99,FreeWX 2.04,2013-01-06 23:23:00,
2013-01-06 16:33:00,25.0,1.2,29.88,WNW,282,2.0,4.5,35,0.00,,,-99.99,FreeWX 2.04,2013-01-06 23:33:00,
2013-01-06 16:43:00,23.9,1.9,29.88,North,-999,0.0,4.5,38,0.00,,,-99.99,FreeWX 2.04,2013-01-06 23:43:00,
2013-01-06 16:53:00,23.5,2.3,29.88,North,-999,0.0,3.6,39,0.00,,,-99.99,FreeWX 2.04,2013-01-06 23:53:00,
2013-01-06 17:03:00,22.8,2.1,29.88,WNW,283,2.0,4.9,40,0.00,,,-99.99,FreeWX 2.04,2013-01-07 00:03:00,
2013-01-06 17:13:00,22.5,1.8,29.88,West,271,1.0,4.5,40,0.00,,,-99.99,FreeWX 2.04,2013-01-07 00:13:00,
2013-01-06 17:23:00,22.3,2.1,29.85,SSW,199,1.0,4.5,41,0.00,,,-99.99,FreeWX 2.04,2013-01-07 00:23:00,
2013-01-06 17:33:00,21.6,2.1,29.85,North,-999,0.0,0.0,42,0.00,,,-99.99,FreeWX 2.04,2013-01-07 00:33:00,
2013-01-06 17:43:00,21.0,2.1,29.88,SSE,167,2.0,4.9,43,0.00,,,-99.99,FreeWX 2.04,2013-01-07 00:43:00,
2013-01-06 17:53:00,21.4,2.8,29.88,SE,137,3.0,4.9,44,0.00,,,-99.99,FreeWX 2.04,2013-01-07 00:53:00,
2013-01-06 18:03:00,21.4,2.8,29.88,ESE,108,1.0,4.9,44,0.00,,,-99.99,FreeWX 2.04,2013-01-07 01:03:00,
2013-01-06 18:13:00,22.3,3.7,29.88,ESE,106,2.0,6.9,44,0.00,,,-99.99,FreeWX 2.04,2013-01-07 01:13:00,
2013-01-06 18:23:00,23.0,4.5,29.88,East,100,4.0,6.7,44,0.00,,,-99.99,FreeWX 2.04,2013-01-07 01:23:00,
2013-01-06 18:33:00,23.2,4.5,29.88,East,100,4.0,8.3,44,0.00,,,-99.99,FreeWX 2.04,2013-01-07 01:33:00,
2013-01-06 18:43:00,23.7,4.5,29.88,ESE,102,4.0,7.4,43,0.00,,,-99.99,FreeWX 2.04,2013-01-07 01:43:00,
2013-01-06 18:53:00,24.3,4.5,29.88,ESE,107,3.0,6.9,42,0.00,,,-99.99,FreeWX 2.04,2013-01-07 01:53:00,
2013-01-06 19:03:00,23.9,4.6,29.88,ESE,122,1.0,4.9,43,0.00,,,-99.99,FreeWX 2.04,2013-01-07 02:03:00,
2013-01-06 19:13:00,22.8,4.3,29.88,SE,140,5.0,7.8,44,0.00,,,-99.99,FreeWX 2.04,2013-01-07 02:13:00,
2013-01-06 19:23:00,21.4,2.8,29.88,North,11,6.0,14.3,44,0.00,,,-99.99,FreeWX 2.04,2013-01-07 02:23:00,
2013-01-06 19:33:00,21.0,3.0,29.88,NW,305,3.0,7.4,45,0.00,,,-99.99,FreeWX 2.04,2013-01-07 02:33:00,
2013-01-06 19:43:00,19.9,2.1,29.88,WSW,252,3.0,5.4,45,0.00,,,-99.99,FreeWX 2.04,2013-01-07 02:43:00,
2013-01-06 19:53:00,17.6,-0.6,29.91,North,-999,0.0,0.0,44,0.00,,,-99.99,FreeWX 2.04,2013-01-07 02:53:00,
2013-01-06 20:03:00,15.3,-2.2,29.91,North,-999,0.0,0.0,45,0.00,,,-99.99,FreeWX 2.04,2013-01-07 03:03:00,
2013-01-06 20:13:00,16.9,1.0,29.91,North,-999,0.0,4.5,49,0.00,,,-99.99,FreeWX 2.04,2013-01-07 03:13:00,
2013-01-06 20:23:00,16.7,0.9,29.91,North,-999,0.0,0.0,49,0.00,,,-99.99,FreeWX 2.04,2013-01-07 03:23:00,
2013-01-06 20:33:00,16.0,0.7,29.91,SE,131,2.0,5.4,50,0.00,,,-99.99,FreeWX 2.04,2013-01-07 03:33:00,
2013-01-06 20:43:00,16.0,0.7,29.91,ESE,106,2.0,4.9,50,0.00,,,-99.99,FreeWX 2.04,2013-01-07 03:43:00,
2013-01-06 20:53:00,14.9,0.1,29.91,ESE,112,1.0,5.8,51,0.00,,,-99.99,FreeWX 2.04,2013-01-07 03:53:00,
2013-01-06 21:03:00,13.6,-99.9,29.91,North,-999,0.0,4.0,-999,0.00,,,-99.99,FreeWX 2.04,2013-01-07 04:03:00,
2013-01-06 21:13:00,12.6,-99.9,29.91,ESE,113,2.0,5.4,-999,0.00,,,-99.99,FreeWX 2.04,2013-01-07 04:13:00,
2013-01-06 21:23:00,13.5,-99.9,29.91,ESE,115,2.0,7.8,-999,0.00,,,-99.99,FreeWX 2.04,2013-01-07 04:23:00,
2013-01-06 21:33:00,13.1,-99.9,29.91,ESE,114,4.0,6.3,-999,0.00,,,-99.99,FreeWX 2.04,2013-01-07 04:33:00,
2013-01-06 21:43:00,13.5,-99.9,29.91,ESE,113,4.0,7.4,-999,0.00,,,-99.99,FreeWX 2.04,2013-01-07 04:43:00,
2013-01-06 21:53:00,12.4,-99.9,29.91,ESE,105,3.0,6.3,-999,0.00,,,-99.99,FreeWX 2.04,2013-01-07 04:53:00,
2013-01-06 22:03:00,12.4,-99.9,29.91,ESE,119,5.0,8.3,-999,0.00,,,-99.99,FreeWX 2.04,2013-01-07 05:03:00,
2013-01-06 22:13:00,12.4,-99.9,29.88,ESE,119,4.0,6.7,-999,0.00,,,-99.99,FreeWX 2.04,2013-01-07 05:13:00,
2013-01-06 22:23:00,14.7,1.6,29.88,ESE,105,3.0,6.9,55,0.00,,,-99.99,FreeWX 2.04,2013-01-07 05:23:00,
2013-01-06 22:34:00,12.4,-99.9,29.88,SSE,148,5.0,8.7,-999,0.00,,,-99.99,FreeWX 2.04,2013-01-07 05:34:00,
2013-01-06 22:44:00,12.6,-99.9,29.91,ESE,121,4.0,7.8,-999,0.00,,,-99.99,FreeWX 2.04,2013-01-07 05:44:00,
2013-01-06 22:54:00,11.8,-99.9,29.91,ESE,120,5.0,8.3,-999,0.00,,,-99.99,FreeWX 2.04,2013-01-07 05:54:00,
2013-01-06 23:04:00,11.8,-99.9,29.91,ESE,108,4.0,7.4,-999,0.00,,,-99.99,FreeWX 2.04,2013-01-07 06:04:00,
2013-01-06 23:14:00,11.7,-99.9,29.91,SE,124,5.0,7.4,-999,0.00,,,-99.99,FreeWX 2.04,2013-01-07 06:14:00,
2013-01-06 23:24:00,10.9,-99.9,29.91,SE,124,5.0,6.9,-999,0.00,,,-99.99,FreeWX 2.04,2013-01-07 06:24:00,
2013-01-06 23:34:00,10.6,-99.9,29.91,ESE,113,4.0,6.3,-999,0.00,,,-99.99,FreeWX 2.04,2013-01-07 06:34:00,
2013-01-06 23:44:00,10.0,-99.9,29.91,ESE,121,5.0,6.9,-999,0.00,,,-99.99,FreeWX 2.04,2013-01-07 06:44:00,
2013-01-06 23:54:00,10.2,-99.9,29.91,SE,129,5.0,6.9,-999,0.00,,,-99.99,FreeWX 2.04,2013-01-07 06:54:00,